Latest Weather Observations for Avalon

IDV60901

Issued at 10:45 am EST Thursday 17 April 2014 (issued every 10 minutes, with the page automatically refreshed every 10 minutes)

About weather observations | Map of Melbourne area stations | Latest observations for Melbourne area | Other Formats
Station Details ID: 087113 Name: AVALON AIRPORT Lat: -38.03 Lon: 144.48 Height: 10.6 m
Data from the previous 72 hours. | See also: Recent months at Avalon
Date/Time
EST
Tmp

°C
App
Tmp
°C
Dew
Point
°C
Rel
Hum
%
Delta-T

°C
Wind Press
QNH
hPa
Press
MSL
hPa
Rain
since
9 am
mm
Dir
 
Spd
km/h
Gust
km/h
Spd
kts
Gust
kts
17/10:30am 18.3 17.8 10.9 62 4.0 NNE 4 9 2 5 1020.6 - 0.0
17/10:00am 17.7 18.2 11.7 68 3.3 CALM 0 7 0 4 1020.8 - 0.0
17/09:30am 16.1 16.5 11.3 73 2.6 CALM 0 0 0 0 1021.0 - 0.0
17/09:00am 14.4 13.6 11.2 81 1.7 N 6 7 3 4 1021.1 1021.1 0.0
17/08:30am 12.4 11.4 11.0 91 0.7 N 7 9 4 5 1021.1 - 0.0
17/08:00am 10.9 9.8 10.1 95 0.4 NW 6 7 3 4 1021.0 - 0.0
17/07:30am 9.3 7.7 8.7 96 0.3 N 7 9 4 5 1020.6 - 0.0
17/07:00am 8.5 6.6 7.7 95 0.4 NW 7 7 4 4 1020.3 - 0.0
17/06:30am 8.9 6.7 8.0 94 0.4 NW 9 9 5 5 1020.3 - 0.0
17/06:00am 9.5 7.5 8.7 95 0.4 NW 9 11 5 6 1019.9 1019.9 0.0
17/05:30am 9.6 8.0 8.7 94 0.4 NW 7 9 4 5 1019.8 - 0.0
17/05:00am 9.6 7.6 8.8 95 0.4 WNW 9 11 5 6 1019.9 - 0.0
17/04:30am 9.2 7.1 8.3 94 0.4 NW 9 9 5 5 1019.7 - 0.0
17/04:00am 9.0 6.8 7.9 93 0.5 W 9 9 5 5 1019.4 - 0.0
17/03:30am 9.4 7.4 8.5 94 0.4 WNW 9 9 5 5 1019.4 - 0.0
17/03:00am 9.1 7.5 7.9 92 0.6 WNW 6 7 3 4 1019.5 1019.5 0.0
17/02:30am 9.9 8.9 8.7 92 0.6 W 4 9 2 5 1019.4 - 0.0
17/02:00am 10.0 9.7 8.6 91 0.7 CALM 0 0 0 0 1019.5 - 0.0
17/01:30am 10.2 8.8 8.8 91 0.7 WNW 6 7 3 4 1019.5 - 0.0
17/01:00am 9.8 7.7 8.4 91 0.7 NNW 9 13 5 7 1019.5 - 0.0
17/12:30am 10.9 8.7 9.2 89 0.8 NNW 11 11 6 6 1019.5 - 0.0
17/12:00am 11.4 10.1 9.8 90 0.8 WNW 7 9 4 5 1019.6 1019.6 0.0
 
Date/Time
EST
Tmp

°C
App
Tmp
°C
Dew
Point
°C
Rel
Hum
%
Delta-T

°C
Wind Press
QNH
hPa
Press
MSL
hPa
Rain
since
9 am
mm
Dir
 
Spd
km/h
Gust
km/h
Spd
kts
Gust
kts
16/11:30pm 11.2 9.8 9.5 89 0.9 W 7 9 4 5 1019.9 - 0.0
16/11:00pm 11.4 9.9 9.3 87 1.1 WNW 7 7 4 4 1019.8 - 0.0
16/10:30pm 12.3 11.1 9.5 83 1.4 NNW 6 7 3 4 1019.7 - 0.0
16/10:00pm 12.5 10.8 9.7 83 1.4 N 9 11 5 6 1019.7 - 0.0
16/09:30pm 12.6 10.3 9.1 79 1.8 N 11 13 6 7 1019.8 - 0.0
16/09:00pm 13.0 11.2 9.4 79 1.8 N 9 11 5 6 1019.8 1019.8 0.0
16/08:30pm 13.8 12.6 10.2 79 1.9 NW 7 9 4 5 1019.6 - 0.0
16/08:00pm 14.4 12.8 10.2 76 2.2 NW 9 9 5 5 1019.6 - 0.0
16/07:30pm 15.1 13.7 9.7 70 2.8 WSW 7 9 4 5 1019.6 - 0.0
16/07:00pm 15.8 14.1 9.9 68 3.1 SW 9 11 5 6 1019.4 - 0.0
16/06:30pm 16.4 14.0 10.0 66 3.4 WSW 13 17 7 9 1019.3 - 0.0
16/06:00pm 17.2 14.4 10.1 63 3.7 WSW 15 19 8 10 1018.9 1018.9 0.0
16/05:30pm 17.9 15.2 10.3 61 4.1 SW 15 19 8 10 1018.9 - 0.0
16/05:00pm 18.4 16.2 10.7 61 4.1 SSW 13 17 7 9 1018.7 - 0.0
16/04:30pm 19.4 17.5 11.9 62 4.2 SSW 13 17 7 9 1018.6 - 0.0
16/04:00pm 19.4 18.2 12.7 65 3.8 SSW 11 15 6 8 1018.5 - 0.0
16/03:30pm 19.4 17.7 12.4 64 3.9 SSW 13 17 7 9 1018.5 - 0.0
16/03:00pm 19.2 17.4 12.0 63 4.0 SW 13 17 7 9 1018.5 1018.5 0.0
16/02:30pm 19.8 18.3 13.0 65 3.9 SSW 13 20 7 11 1018.5 - 0.0
16/02:00pm 18.8 17.9 12.5 67 3.5 S 9 17 5 9 1018.6 - 0.0
16/01:30pm 18.0 17.1 12.7 71 3.0 SSE 9 13 5 7 1018.8 - 0.0
16/01:00pm 17.2 16.2 13.3 78 2.2 SE 11 15 6 8 1019.1 - 0.0
16/12:30pm 16.6 15.1 13.1 80 2.0 SE 13 17 7 9 1019.5 - 0.0
16/12:00pm 17.1 16.6 12.8 76 2.4 E 7 11 4 6 1019.9 1019.9 0.0
16/11:30am 17.1 15.9 12.8 76 2.4 E 11 15 6 8 1020.1 - 0.0
16/11:00am 16.7 15.8 12.7 77 2.2 SSE 9 13 5 7 1020.1 - 0.0
16/10:52am 16.9 17.0 12.8 77 2.3 E 4 7 2 4 1020.2 - 0.0
16/10:30am 16.0 15.8 13.1 83 1.6 ESE 6 7 3 4 1020.5 - 0.0
16/10:00am 14.8 14.5 13.2 90 0.9 ESE 7 11 4 6 1020.7 - 0.0
16/09:30am 14.2 15.3 13.6 96 0.3 CALM 0 0 0 0 1021.1 - 0.0
16/09:00am 13.2 13.0 13.0 99 0.1 W 6 7 3 4 1021.2 1021.2 0.0
16/08:30am 12.4 11.9 12.2 99 0.1 W 6 7 3 4 1021.0 - 0.0
16/08:21am 12.4 11.8 12.2 99 0.1 W 7 9 4 5 1021.0 - 0.0
16/08:00am 11.1 10.3 10.9 99 0.1 W 6 9 3 5 1020.9 - 0.0
16/07:30am 10.3 9.0 10.1 99 0.1 WNW 7 9 4 5 1020.7 - 0.0
16/07:00am 9.2 7.3 9.1 99 0.0 NW 9 11 5 6 1020.6 - 0.0
16/06:30am 9.3 7.1 9.2 99 0.0 NW 11 13 6 7 1020.6 - 0.0
16/06:00am 8.8 6.4 8.7 99 0.0 NNW 11 11 6 6 1020.4 1020.4 0.0
16/05:30am 8.9 6.9 8.8 99 0.0 NW 9 11 5 6 1020.5 - 0.0
16/05:00am 8.8 6.4 8.7 99 0.0 NNW 11 13 6 7 1020.6 - 0.0
16/04:39am 8.7 6.2 8.4 98 0.1 NNW 11 11 6 6 1020.6 - 0.0
16/04:30am 8.6 6.5 8.2 97 0.2 NNW 9 11 5 6 1020.6 - 0.0
16/04:26am 8.6 6.5 8.2 97 0.2 NNW 9 11 5 6 1020.6 - 0.0
16/04:00am 9.7 7.5 9.2 97 0.2 WNW 11 13 6 7 1020.4 - 0.0
16/03:30am 9.3 7.3 8.5 95 0.4 NW 9 11 5 6 1020.1 - 0.0
16/03:00am 9.7 9.4 8.5 92 0.6 CALM 0 6 0 3 1020.2 1020.2 0.0
16/02:30am 12.0 10.7 11.1 94 0.5 E 9 9 5 5 1020.4 - 0.0
16/02:00am 11.6 9.7 10.5 93 0.6 ESE 11 13 6 7 1020.8 - 0.0
16/01:30am 12.0 11.2 10.9 93 0.6 ESE 6 9 3 5 1021.4 - 0.0
16/01:00am 11.6 10.4 10.3 92 0.7 SE 7 9 4 5 1021.6 - 0.0
16/12:30am 12.2 11.2 10.4 89 0.9 SE 6 9 3 5 1021.8 - 0.0
16/12:00am 13.1 11.8 11.3 89 0.9 SSE 9 11 5 6 1022.0 1022.0 0.0
 
Date/Time
EST
Tmp

°C
App
Tmp
°C
Dew
Point
°C
Rel
Hum
%
Delta-T

°C
Wind Press
QNH
hPa
Press
MSL
hPa
Rain
since
9 am
mm
Dir
 
Spd
km/h
Gust
km/h
Spd
kts
Gust
kts
15/11:30pm 12.9 10.7 10.8 87 1.1 S 13 15 7 8 1022.1 - 0.0
15/11:00pm 13.3 11.2 11.2 87 1.1 SSE 13 15 7 8 1022.4 - 0.0
15/10:30pm 14.2 12.8 12.1 87 1.1 SSE 11 13 6 7 1022.6 - 0.0
15/10:00pm 15.4 13.8 12.7 84 1.5 SSE 13 15 7 8 1023.0 - 0.0
15/09:30pm 15.6 14.0 12.7 83 1.6 S 13 15 7 8 1023.2 - 0.0
15/09:00pm 15.5 13.4 12.3 81 1.7 S 15 19 8 10 1023.2 1023.2 0.0
15/08:30pm 16.0 14.0 12.6 80 1.9 S 15 17 8 9 1022.9 - 0.0
15/08:00pm 15.9 13.9 12.8 82 1.7 S 15 19 8 10 1023.0 - 0.0
15/07:30pm 15.7 13.3 12.5 81 1.8 S 17 20 9 11 1023.1 - 0.0
15/07:00pm 16.0 13.2 12.6 80 1.9 S 19 24 10 13 1023.0 - 0.0
15/06:30pm 16.1 13.0 12.3 78 2.1 S 20 26 11 14 1022.6 - 0.0
15/06:00pm 16.5 13.0 12.1 75 2.4 S 22 28 12 15 1022.5 1022.5 0.0
15/05:30pm 16.6 12.6 11.9 74 2.6 S 24 30 13 16 1022.2 - 0.0
15/05:00pm 17.4 13.6 12.3 72 2.8 S 24 30 13 16 1022.0 - 0.0
15/04:30pm 18.0 14.1 12.2 69 3.2 S 24 30 13 16 1022.0 - 0.0
15/04:00pm 17.9 13.6 11.9 68 3.3 S 26 32 14 17 1022.1 - 0.0
15/03:30pm 18.8 14.6 12.5 67 3.5 S 26 32 14 17 1022.3 - 0.0
15/03:00pm 18.1 13.3 11.7 66 3.5 S 28 35 15 19 1022.4 1022.4 0.0
15/02:30pm 18.5 13.7 11.8 65 3.7 S 28 35 15 19 1022.3 - 0.0
15/02:00pm 18.1 13.4 12.1 68 3.3 S 28 33 15 18 1022.4 - 0.0
15/01:30pm 18.5 14.1 12.9 70 3.1 S 28 33 15 18 1022.5 - 0.0
15/01:00pm 18.4 14.2 12.4 68 3.3 S 26 33 14 18 1022.7 - 0.0
15/12:30pm 18.9 15.8 12.2 65 3.7 SE 20 30 11 16 1023.2 - 0.0
15/12:00pm 19.4 17.1 13.1 67 3.6 SE 17 26 9 14 1023.5 1023.5 0.0
15/11:30am 18.6 16.0 13.2 71 3.1 ESE 19 26 10 14 1023.8 - 0.0
15/11:00am 17.6 14.7 12.3 71 2.9 ESE 19 22 10 12 1024.0 - 0.0
15/10:30am 17.7 15.0 13.0 74 2.6 SE 19 24 10 13 1024.1 - 0.0
15/10:00am 16.8 14.1 12.9 78 2.2 ESE 19 24 10 13 1024.2 - 0.0
15/09:30am 16.6 15.7 13.7 83 1.6 ESE 11 20 6 11 1024.3 - 0.0
15/09:00am 15.2 16.2 13.1 87 1.2 CALM 0 0 0 0 1024.4 1024.4 0.0
15/08:30am 14.1 13.9 13.0 93 0.6 NNW 6 7 3 4 1024.4 - 0.0
15/08:00am 12.5 11.8 12.0 97 0.3 WNW 7 9 4 5 1024.1 - 0.0
15/07:30am 11.5 10.2 11.2 98 0.2 WNW 9 11 5 6 1023.9 - 0.0
15/07:00am 10.9 9.4 10.6 98 0.2 NW 9 11 5 6 1023.7 - 0.0
15/06:30am 10.3 9.0 9.8 97 0.3 WNW 7 9 4 5 1023.4 - 0.0
15/06:00am 9.6 8.2 8.8 95 0.4 WNW 6 9 3 5 1023.2 1023.2 0.0
15/05:30am 10.5 9.3 9.4 93 0.5 SW 6 7 3 4 1023.1 - 0.0
15/05:00am 10.9 9.4 9.3 90 0.8 SW 7 7 4 4 1023.1 - 0.0
15/04:30am 13.4 12.6 11.6 89 1.0 ESE 7 7 4 4 1022.9 - 0.0
15/04:00am 13.1 12.8 11.3 89 1.0 ESE 4 6 2 3 1023.0 - 0.0
15/03:30am 13.4 12.9 12.0 91 0.8 E 6 9 3 5 1023.0 - 0.0
15/03:00am 12.5 11.2 11.1 91 0.7 SSE 9 13 5 7 1023.1 1023.1 0.0
15/02:30am 12.9 11.2 11.3 90 0.8 SSE 11 13 6 7 1023.3 - 0.0
15/02:00am 13.4 11.5 11.8 90 0.9 S 13 15 7 8 1023.5 - 0.0
15/01:30am 14.0 12.8 12.7 92 0.7 S 11 15 6 8 1023.5 - 0.0
15/01:00am 13.0 12.5 12.1 94 0.5 W 6 7 3 4 1023.5 - 0.0
15/12:30am 12.4 11.7 11.3 93 0.6 WNW 6 7 3 4 1023.6 - 0.0
15/12:00am 12.3 12.2 10.7 90 0.8 SSE 2 6 1 3 1023.5 1023.5 0.0
 
Date/Time
EST
Tmp

°C
App
Tmp
°C
Dew
Point
°C
Rel
Hum
%
Delta-T

°C
Wind Press
QNH
hPa
Press
MSL
hPa
Rain
since
9 am
mm
Dir
 
Spd
km/h
Gust
km/h
Spd
kts
Gust
kts
14/11:30pm 13.8 12.9 12.5 92 0.7 SSE 9 11 5 6 1023.6 - 0.0
14/11:00pm 13.1 11.9 11.7 91 0.7 SSE 9 11 5 6 1023.8 - 0.0
14/10:30pm 13.1 11.5 11.5 90 0.8 S 11 13 6 7 1024.0 - 0.0
14/10:00pm 13.9 11.8 12.3 90 0.9 S 15 17 8 9 1023.9 - 0.0
14/09:30pm 13.7 11.8 11.9 89 1.0 S 13 15 7 8 1023.9 - 0.0
14/09:00pm 14.3 12.1 12.0 86 1.2 S 15 17 8 9 1023.9 1023.9 0.0
14/08:30pm 14.5 11.8 11.6 83 1.6 S 17 19 9 10 1023.9 - 0.0
14/08:00pm 14.8 12.1 11.6 81 1.7 S 17 20 9 11 1023.7 - 0.0
14/07:30pm 14.8 12.0 11.2 79 1.9 S 17 22 9 12 1023.7 - 0.0
14/07:00pm 15.0 11.9 10.2 73 2.5 S 17 20 9 11 1023.6 - 0.0
14/06:30pm 15.2 11.5 9.3 68 3.0 S 19 20 10 11 1023.2 - 0.0
14/06:00pm 15.9 12.2 9.3 65 3.4 S 19 24 10 13 1022.9 1022.9 0.0
14/05:30pm 17.0 12.3 7.9 55 4.6 S 22 26 12 14 1022.7 - 0.0
14/05:00pm 17.9 13.0 6.7 48 5.6 S 22 28 12 15 1022.6 - 0.0
14/04:30pm 18.5 13.7 7.3 48 5.7 S 22 30 12 16 1022.5 - 0.0
14/04:00pm 19.0 13.9 7.8 48 5.7 S 24 30 13 16 1022.6 - 0.0
14/03:30pm 19.3 15.2 8.6 50 5.6 S 20 32 11 17 1022.5 - 0.0
14/03:00pm 19.2 14.9 9.4 53 5.2 S 22 32 12 17 1022.5 1022.5 0.0
14/02:30pm 18.6 14.3 7.7 49 5.6 SSE 20 28 11 15 1022.5 - 0.0
14/02:00pm 19.7 15.8 8.7 49 5.7 SE 19 30 10 16 1022.6 - 0.0
14/01:30pm 19.1 15.4 9.6 54 5.0 E 19 26 10 14 1022.8 - 0.0
14/01:00pm 18.7 15.3 9.2 54 5.0 SE 17 20 9 11 1023.3 - 0.0
14/12:30pm 18.6 14.8 9.1 54 5.0 ESE 19 26 10 14 1023.6 - 0.0
14/12:00pm 18.6 14.8 9.7 56 4.7 ESE 20 28 11 15 1023.8 1023.8 0.0
14/11:30am 18.2 13.7 8.7 54 4.9 ESE 22 28 12 15 1024.0 - 0.0
14/11:00am 18.4 14.2 9.7 57 4.6 ESE 22 30 12 16 1024.2 - 0.0

Latest Capital City Observations: Canberra | Sydney | Melbourne | Brisbane | Adelaide | Perth | Hobart | Darwin

Other Formats:

Comma delimited format used in spreadsheet applications
http://www.bom.gov.au/fwo/IDV60901/IDV60901.94854.axf

JavaScript Object Notation format (JSON) in row-major order
http://www.bom.gov.au/fwo/IDV60901/IDV60901.94854.json